Time;durP1;ratioP1;P1;durP2;ratioP2;P2;SDS_P1;SDS_P2;PMS_P1;PMS_P2;Temp;Humidity;BMP_temperature;BMP_pressure;BME280_temperature;BME280_humidity;BME280_pressure;Samples;Min_cycle;Max_cycle;Signal;HPM_P1;HPM_P2
2023/07/01 04:02:47;;;;;;;0.60;0.20;;;18.00;1.00;;;;;;5028483;23;20493;-72
2023/07/01 04:05:16;;;;;;;0.60;0.10;;;18.00;1.00;;;;;;4962691;29;20486;-73
2023/07/01 04:07:45;;;;;;;0.60;0.20;;;18.10;1.00;;;;;;4962114;29;20457;-72
2023/07/01 04:10:14;;;;;;;0.60;0.20;;;18.10;1.00;;;;;;4964274;29;20509;-73
2023/07/01 04:12:42;;;;;;;0.60;0.13;;;18.20;1.00;;;;;;4972117;28;20995;-72
2023/07/01 04:15:10;;;;;;;0.60;0.20;;;18.20;1.00;;;;;;4962214;29;20451;-72
2023/07/01 04:17:41;;;;;;;0.60;0.20;;;18.10;1.00;;;;;;4964159;29;20546;-74
2023/07/01 04:20:13;;;;;;;0.60;0.20;;;17.90;1.00;;;;;;4964751;29;20453;-72
2023/07/01 04:22:41;;;;;;;0.60;0.13;;;17.90;1.00;;;;;;4962988;29;20485;-73
2023/07/01 04:25:10;;;;;;;0.60;0.20;;;17.80;1.00;;;;;;4964779;29;20556;-73
2023/07/01 04:27:38;;;;;;;0.80;0.30;;;;;;;;;;4964305;29;20485;-73
2023/07/01 04:30:08;;;;;;;0.60;0.10;;;17.50;1.00;;;;;;4962294;29;20454;-73
2023/07/01 04:32:36;;;;;;;0.60;0.20;;;17.40;1.00;;;;;;4963674;29;20637;-72
2023/07/01 04:35:05;;;;;;;3.27;0.70;;;17.30;1.00;;;;;;4967519;29;20518;-73
2023/07/01 04:37:34;;;;;;;0.60;0.10;;;17.30;1.00;;;;;;4965606;29;20486;-74
2023/07/01 04:40:03;;;;;;;0.60;0.10;;;17.30;1.00;;;;;;4946130;29;20479;-73
2023/07/01 04:42:32;;;;;;;0.70;0.40;;;17.30;1.00;;;;;;4951571;29;20500;-73
2023/07/01 04:45:00;;;;;;;0.60;0.10;;;17.40;1.00;;;;;;4967130;29;20545;-73
2023/07/01 04:47:28;;;;;;;0.60;0.10;;;17.40;1.00;;;;;;4966080;29;20455;-73
2023/07/01 04:49:56;;;;;;;0.60;0.20;;;17.30;1.00;;;;;;4965155;29;20460;-75
2023/07/01 04:52:25;;;;;;;0.70;0.47;;;17.40;1.00;;;;;;4962438;28;20495;-73
2023/07/01 04:54:55;;;;;;;0.60;0.10;;;17.40;1.00;;;;;;4959262;28;20462;-75
2023/07/01 04:57:22;;;;;;;0.80;0.53;;;17.30;1.00;;;;;;4958027;29;20866;-73
2023/07/01 04:59:51;;;;;;;0.60;0.20;;;;;;;;;;4958928;29;21023;-73
2023/07/01 05:02:19;;;;;;;0.60;0.20;;;;;;;;;;4957772;29;20563;-74
2023/07/01 05:04:47;;;;;;;0.60;0.20;;;17.40;1.00;;;;;;4958164;29;20465;-74
2023/07/01 05:07:15;;;;;;;0.60;0.17;;;17.50;1.00;;;;;;4958697;29;20519;-73
2023/07/01 05:09:43;;;;;;;0.97;0.50;;;17.60;1.00;;;;;;4957690;29;20474;-74
2023/07/01 05:12:13;;;;;;;0.60;0.10;;;17.60;1.00;;;;;;4972399;28;20461;-72
2023/07/01 05:14:41;;;;;;;0.60;0.10;;;17.60;1.00;;;;;;4958454;29;20532;-73
2023/07/01 05:17:09;;;;;;;0.60;0.10;;;17.70;1.00;;;;;;4957814;29;20457;-73
2023/07/01 05:19:37;;;;;;;0.60;0.10;;;17.80;1.00;;;;;;4958670;29;20514;-74
2023/07/01 05:22:05;;;;;;;0.60;0.10;;;17.70;1.00;;;;;;4959372;29;20501;-74
2023/07/01 05:24:33;;;;;;;1.43;0.43;;;17.70;1.00;;;;;;4957386;29;20502;-74
2023/07/01 05:27:01;;;;;;;1.23;0.47;;;;;;;;;;4956555;29;20489;-74
2023/07/01 05:29:30;;;;;;;0.60;0.20;;;17.60;1.00;;;;;;4956458;29;20463;-75
2023/07/01 05:31:58;;;;;;;0.67;0.47;;;17.40;1.00;;;;;;4955965;28;20478;-75
2023/07/01 05:34:26;;;;;;;0.60;0.20;;;17.40;1.00;;;;;;4956269;29;20537;-74
2023/07/01 05:36:55;;;;;;;0.80;0.73;;;17.20;1.00;;;;;;4956271;29;20481;-74
2023/07/01 05:39:23;;;;;;;0.60;0.33;;;17.20;1.00;;;;;;4955957;29;20540;-72
2023/07/01 05:41:51;;;;;;;0.60;0.20;;;17.40;1.00;;;;;;4955444;28;20488;-73
2023/07/01 05:44:19;;;;;;;0.70;0.60;;;17.40;1.00;;;;;;4955623;29;20450;-73
2023/07/01 05:46:48;;;;;;;0.70;0.30;;;17.50;1.00;;;;;;4955469;29;20518;-75
2023/07/01 05:49:16;;;;;;;0.70;0.40;;;17.70;1.00;;;;;;4956289;29;20542;-73
2023/07/01 05:51:44;;;;;;;0.63;0.37;;;17.70;1.00;;;;;;4956269;28;20473;-74
2023/07/01 05:54:12;;;;;;;0.60;0.10;;;17.80;1.00;;;;;;4957188;29;20451;-74
2023/07/01 05:56:40;;;;;;;0.60;0.10;;;17.00;1.00;;;;;;4959522;29;20528;-75
2023/07/01 05:59:08;;;;;;;0.60;0.20;;;18.10;1.00;;;;;;4956721;29;20932;-74
2023/07/01 06:01:35;;;;;;;3.33;0.47;;;18.10;1.00;;;;;;4954397;29;21070;-74
2023/07/01 06:04:05;;;;;;;0.60;0.20;;;18.20;1.00;;;;;;4954766;28;20480;-73
2023/07/01 06:06:33;;;;;;;0.60;0.20;;;18.30;1.00;;;;;;4965879;28;20480;-74
2023/07/01 06:09:01;;;;;;;0.60;0.20;;;18.30;1.00;;;;;;4973977;28;20944;-75
2023/07/01 06:11:29;;;;;;;0.60;0.20;;;18.40;1.00;;;;;;4961454;28;20553;-74
2023/07/01 06:13:57;;;;;;;2.63;1.43;;;18.40;1.00;;;;;;4955062;29;20458;-74
2023/07/01 06:16:25;;;;;;;0.70;0.30;;;18.60;1.00;;;;;;4955365;29;20556;-73
2023/07/01 06:18:53;;;;;;;0.60;0.10;;;18.60;1.00;;;;;;4954744;29;20890;-73
2023/07/01 06:21:22;;;;;;;0.60;0.20;;;18.60;1.00;;;;;;4954412;28;20565;-74
2023/07/01 06:23:53;;;;;;;5.50;2.67;;;18.80;1.00;;;;;;4954680;29;20454;-74
2023/07/01 06:26:22;;;;;;;0.60;0.20;;;18.90;1.00;;;;;;4954297;29;20607;-73
2023/07/01 06:28:49;;;;;;;0.60;0.17;;;18.90;1.00;;;;;;4954462;29;20540;-76
2023/07/01 06:31:17;;;;;;;0.60;0.17;;;19.00;1.00;;;;;;4955493;29;20896;-72
2023/07/01 06:33:46;;;;;;;0.60;0.10;;;19.10;1.00;;;;;;4953829;29;20446;-70
2023/07/01 06:36:15;;;;;;;0.60;0.10;;;19.20;1.00;;;;;;4953975;29;20866;-71
2023/07/01 06:38:46;;;;;;;0.60;0.10;;;19.40;1.00;;;;;;4953328;29;20550;-70
2023/07/01 06:41:14;;;;;;;0.60;0.17;;;19.50;1.00;;;;;;4953832;28;20569;-69
2023/07/01 06:43:42;;;;;;;0.60;0.20;;;19.60;1.00;;;;;;4953393;29;20546;-70
2023/07/01 06:46:10;;;;;;;1.83;0.90;;;19.70;1.00;;;;;;4954079;29;20493;-70
2023/07/01 06:48:42;;;;;;;1.03;0.90;;;19.30;1.00;;;;;;4953637;29;20458;-71
2023/07/01 06:51:10;;;;;;;1.73;0.57;;;19.30;1.00;;;;;;4954984;29;20571;-70
2023/07/01 06:53:39;;;;;;;1.07;0.60;;;19.20;1.00;;;;;;4954109;29;20453;-71
2023/07/01 06:56:08;;;;;;;0.60;0.10;;;19.00;1.00;;;;;;4953968;29;20457;-71
2023/07/01 06:58:36;;;;;;;0.60;0.20;;;19.10;1.00;;;;;;4935272;29;20452;-71
2023/07/01 07:01:04;;;;;;;0.60;0.20;;;19.40;1.00;;;;;;4938485;29;20510;-71
2023/07/01 07:03:32;;;;;;;0.60;0.10;;;19.50;1.00;;;;;;4963845;28;20550;-72
2023/07/01 07:06:00;;;;;;;1.77;0.53;;;19.70;1.00;;;;;;4973509;28;20497;-72
2023/07/01 07:08:28;;;;;;;0.70;0.20;;;19.90;1.00;;;;;;4973230;28;20508;-70
2023/07/01 07:10:56;;;;;;;0.60;0.20;;;20.00;1.00;;;;;;4980460;28;20522;-71
2023/07/01 07:13:26;;;;;;;0.60;0.10;;;20.00;1.00;;;;;;4985650;28;20454;-70
2023/07/01 07:15:54;;;;;;;0.60;0.20;;;20.30;1.00;;;;;;4972933;28;20480;-71
2023/07/01 07:18:21;;;;;;;0.60;0.20;;;20.40;1.00;;;;;;4974515;28;20439;-70
2023/07/01 07:20:49;;;;;;;0.60;0.10;;;20.60;1.00;;;;;;4976828;28;20481;-70
2023/07/01 07:23:17;;;;;;;0.60;0.10;;;20.60;1.00;;;;;;4976753;28;20454;-70
2023/07/01 07:25:45;;;;;;;0.60;0.20;;;20.60;1.00;;;;;;4978025;28;20452;-70
2023/07/01 07:28:14;;;;;;;0.80;0.30;;;20.70;1.00;;;;;;4977679;28;20577;-71
2023/07/01 07:30:43;;;;;;;0.60;0.20;;;20.90;1.00;;;;;;4977716;28;20454;-70
2023/07/01 07:33:11;;;;;;;0.70;0.33;;;;;;;;;;4977212;28;20458;-71
2023/07/01 07:35:39;;;;;;;0.80;0.40;;;21.00;1.00;;;;;;4977284;28;20919;-71
2023/07/01 07:38:07;;;;;;;0.60;0.20;;;21.00;1.00;;;;;;4976861;28;20489;-70
2023/07/01 07:40:35;;;;;;;2.00;0.50;;;21.00;1.00;;;;;;4977491;28;20455;-72
2023/07/01 07:43:09;;;;;;;0.97;0.70;;;21.10;1.00;;;;;;4977925;28;20457;-72
2023/07/01 07:45:37;;;;;;;0.60;0.20;;;21.20;1.00;;;;;;4977882;28;20473;-74
2023/07/01 07:48:07;;;;;;;0.70;0.53;;;;;;;;;;4977189;28;20568;-76
2023/07/01 07:50:36;;;;;;;1.47;0.30;;;21.20;1.00;;;;;;4977188;28;20532;-74
2023/07/01 07:53:04;;;;;;;1.73;0.63;;;21.30;1.00;;;;;;4976715;28;20952;-74
2023/07/01 07:55:34;;;;;;;1.20;0.53;;;21.30;1.00;;;;;;4977220;28;20462;-74
2023/07/01 07:58:03;;;;;;;0.70;0.40;;;21.20;1.00;;;;;;4976485;28;20480;-74
2023/07/01 08:00:30;;;;;;;1.10;0.80;;;21.30;1.00;;;;;;4976198;28;20446;-74
2023/07/01 08:02:58;;;;;;;1.00;0.47;;;21.10;1.00;;;;;;4975843;28;20871;-74
2023/07/01 08:05:28;;;;;;;1.80;0.90;;;21.10;1.00;;;;;;4976380;28;20489;-73
2023/07/01 08:07:56;;;;;;;0.70;0.30;;;21.20;1.00;;;;;;4976127;28;20524;-73
2023/07/01 08:10:24;;;;;;;0.80;0.50;;;21.20;1.00;;;;;;4979727;28;20463;-73
2023/07/01 08:12:52;;;;;;;2.60;1.33;;;21.10;1.00;;;;;;4980529;28;20477;-73
2023/07/01 08:15:19;;;;;;;1.83;1.73;;;20.90;1.00;;;;;;4975775;28;20477;-72
2023/07/01 08:17:47;;;;;;;1.93;1.13;;;20.80;1.00;;;;;;4976397;28;20501;-74
2023/07/01 08:20:15;;;;;;;0.67;0.27;;;20.70;1.00;;;;;;4976265;28;20940;-73
2023/07/01 08:22:44;;;;;;;1.30;0.53;;;20.80;1.00;;;;;;4975683;28;20901;-73
2023/07/01 08:25:12;;;;;;;1.23;0.60;;;20.80;1.00;;;;;;4975368;28;20529;-74
2023/07/01 08:27:40;;;;;;;1.37;0.40;;;20.70;1.00;;;;;;4976824;28;20569;-74
2023/07/01 08:30:09;;;;;;;1.00;0.50;;;20.80;1.00;;;;;;4974575;28;20457;-73
2023/07/01 08:32:37;;;;;;;1.47;0.80;;;;;;;;;;4975420;28;20561;-72
2023/07/01 08:35:05;;;;;;;0.67;0.20;;;20.80;1.00;;;;;;4975549;28;20509;-72
2023/07/01 08:37:34;;;;;;;1.10;0.37;;;;;;;;;;4975660;28;20539;-72
2023/07/01 08:40:04;;;;;;;2.03;0.97;;;20.90;1.00;;;;;;4976003;28;20478;-73
2023/07/01 08:42:38;;;;;;;0.60;0.10;;;21.00;1.00;;;;;;4975290;28;20497;-72
2023/07/01 08:45:08;;;;;;;0.90;0.50;;;21.00;1.00;;;;;;4975307;28;20453;-73
2023/07/01 08:47:36;;;;;;;0.60;0.20;;;21.00;1.00;;;;;;4974797;28;20573;-73
2023/07/01 08:50:07;;;;;;;2.30;1.43;;;20.70;1.00;;;;;;4987861;28;20529;-73
2023/07/01 08:52:40;;;;;;;1.37;1.23;;;20.70;1.00;;;;;;4991907;28;20503;-73
2023/07/01 08:55:10;;;;;;;1.13;0.70;;;20.70;1.00;;;;;;4974718;28;20936;-71
2023/07/01 08:57:39;;;;;;;1.80;1.00;;;20.60;1.00;;;;;;4975285;28;20446;-71
2023/07/01 09:00:09;;;;;;;1.40;0.83;;;;;;;;;;4974672;28;20482;-72
2023/07/01 09:02:37;;;;;;;0.70;0.30;;;20.50;1.00;;;;;;4974892;28;20906;-73
2023/07/01 09:05:06;;;;;;;0.90;0.40;;;20.60;1.00;;;;;;4975413;28;20883;-72
2023/07/01 09:07:34;;;;;;;1.17;0.67;;;20.60;1.00;;;;;;4975387;28;20489;-72
2023/07/01 09:10:03;;;;;;;0.70;0.40;;;;;;;;;;4977305;28;20536;-71
2023/07/01 09:12:32;;;;;;;1.63;0.50;;;20.60;1.00;;;;;;4976545;28;20488;-73
2023/07/01 09:15:02;;;;;;;0.80;0.40;;;20.70;1.00;;;;;;4976070;28;20457;-73
2023/07/01 09:17:31;;;;;;;0.60;0.20;;;20.60;1.00;;;;;;4981658;28;20461;-72
2023/07/01 09:20:00;;;;;;;0.67;0.27;;;20.60;1.00;;;;;;4986609;28;20450;-71
2023/07/01 09:22:29;;;;;;;0.67;0.37;;;;;;;;;;4979655;28;20795;-73
2023/07/01 09:24:57;;;;;;;1.20;0.87;;;20.60;1.00;;;;;;4974630;28;20456;-73
2023/07/01 09:27:25;;;;;;;0.70;0.43;;;20.60;1.00;;;;;;4974878;28;20867;-73
2023/07/01 09:29:54;;;;;;;0.60;0.10;;;20.70;1.00;;;;;;4974775;28;20446;-73
2023/07/01 09:32:28;;;;;;;0.70;0.30;;;20.90;1.00;;;;;;4974136;28;20851;-73
2023/07/01 09:34:57;;;;;;;0.80;0.63;;;20.80;1.00;;;;;;4976919;28;20457;-72
2023/07/01 09:37:25;;;;;;;2.10;1.00;;;20.50;1.00;;;;;;4987680;28;20963;-72
2023/07/01 09:39:53;;;;;;;0.70;0.30;;;20.50;1.00;;;;;;4974195;28;20452;-72
2023/07/01 09:42:21;;;;;;;0.60;0.20;;;20.50;1.00;;;;;;4974205;28;20485;-72
2023/07/01 09:45:07;;;;;;;0.60;0.10;;;20.60;1.00;;;;;;4974717;28;20453;-73
2023/07/01 09:47:37;;;;;;;0.63;0.23;;;20.70;1.00;;;;;;4985943;28;20444;-73
2023/07/01 09:50:07;;;;;;;1.00;0.47;;;20.50;1.00;;;;;;4992310;28;20504;-72
2023/07/01 09:52:35;;;;;;;0.60;0.20;;;20.50;1.00;;;;;;4993468;28;20465;-73
2023/07/01 09:55:05;;;;;;;1.47;0.30;;;20.60;1.00;;;;;;4975149;28;20537;-74
2023/07/01 09:57:37;;;;;;;1.43;0.73;;;20.50;1.00;;;;;;4977960;28;20465;-73
2023/07/01 10:00:09;;;;;;;3.00;1.10;;;20.50;1.00;;;;;;4975400;28;20454;-73
2023/07/01 10:02:38;;;;;;;0.97;0.50;;;20.40;1.00;;;;;;4978047;28;20481;-74
2023/07/01 10:05:07;;;;;;;1.43;0.80;;;20.40;1.00;;;;;;4980708;28;20450;-73
2023/07/01 10:07:35;;;;;;;1.23;0.43;;;20.40;1.00;;;;;;4979828;28;20453;-74
2023/07/01 10:10:03;;;;;;;0.60;0.20;;;20.60;1.00;;;;;;4982185;28;20472;-72
2023/07/01 10:12:32;;;;;;;0.70;0.37;;;20.60;1.00;;;;;;4992207;28;20485;-73
2023/07/01 10:15:00;;;;;;;1.23;0.60;;;20.50;1.00;;;;;;4980893;28;20457;-74
2023/07/01 10:17:45;;;;;;;1.10;0.43;;;20.60;1.00;;;;;;5017417;23;20492;-73
2023/07/01 10:20:25;;;;;;;12.10;1.97;;;20.60;1.00;;;;;;4993691;28;20476;-72
2023/07/01 10:22:55;;;;;;;1.30;0.60;;;20.70;1.00;;;;;;4993089;28;21005;-73
2023/07/01 10:25:31;;;;;;;1.90;0.97;;;20.70;1.00;;;;;;4993700;28;20516;-73
2023/07/01 10:28:08;;;;;;;1.27;0.53;;;20.60;1.00;;;;;;4977283;28;20465;-72
2023/07/01 10:31:10;;;;;;;0.70;0.40;;;20.80;1.00;;;;;;4973574;28;20940;-72
2023/07/01 10:34:06;;;;;;;0.80;0.57;;;20.80;1.00;;;;;;4969179;28;20564;-73
2023/07/01 10:36:36;;;;;;;0.90;0.50;;;20.80;1.00;;;;;;4973538;28;20517;-73
2023/07/01 10:39:32;;;;;;;0.90;0.30;;;20.70;1.00;;;;;;4973596;28;20452;-73
2023/07/01 10:41:59;;;;;;;0.80;0.40;;;20.40;1.00;;;;;;4970616;28;20948;-72
2023/07/01 10:44:28;;;;;;;0.60;0.20;;;20.40;1.00;;;;;;4973293;28;20956;-73
2023/07/01 10:47:17;;;;;;;1.63;1.37;;;20.50;1.00;;;;;;4973367;28;20479;-73
2023/07/01 10:50:11;;;;;;;0.60;0.10;;;20.40;1.00;;;;;;4973098;28;20508;-74
2023/07/01 10:53:02;;;;;;;0.80;0.40;;;20.40;1.00;;;;;;4932483;29;20993;-73
2023/07/01 10:55:38;;;;;;;0.60;0.20;;;20.20;1.00;;;;;;4954147;29;20453;-73
2023/07/01 10:58:21;;;;;;;0.63;0.33;;;20.20;1.00;;;;;;4953885;28;20472;-74
2023/07/01 11:00:51;;;;;;;0.60;0.20;;;20.20;1.00;;;;;;4955609;28;20532;-73
2023/07/01 11:03:54;;;;;;;0.60;0.10;;;20.30;1.00;;;;;;4973348;28;20964;-73
2023/07/01 11:06:23;;;;;;;0.60;0.10;;;20.20;1.00;;;;;;4974001;28;20976;-72
2023/07/01 11:08:53;;;;;;;0.80;0.67;;;20.10;1.00;;;;;;4975446;28;20563;-74
2023/07/01 11:11:24;;;;;;;0.60;0.10;;;20.10;1.00;;;;;;4985907;28;20457;-73
2023/07/01 11:13:59;;;;;;;1.33;0.60;;;20.00;1.00;;;;;;4974005;28;20541;-74
2023/07/01 11:16:29;;;;;;;0.70;0.30;;;19.90;1.00;;;;;;4985379;28;20539;-74
2023/07/01 11:18:59;;;;;;;0.60;0.20;;;19.90;1.00;;;;;;4994413;28;20452;-71
2023/07/01 11:21:30;;;;;;;0.60;0.10;;;19.90;1.00;;;;;;4985259;28;20512;-74
2023/07/01 11:24:00;;;;;;;1.63;1.10;;;19.90;1.00;;;;;;4983302;28;20527;-73
2023/07/01 11:26:30;;;;;;;0.80;0.50;;;19.90;1.00;;;;;;4977357;28;20456;-72
2023/07/01 11:28:58;;;;;;;1.13;0.93;;;19.80;1.00;;;;;;4975465;28;20484;-73
2023/07/01 11:31:31;;;;;;;0.60;0.20;;;19.70;1.00;;;;;;4982451;28;20552;-73
2023/07/01 11:34:00;;;;;;;0.70;0.30;;;19.80;1.00;;;;;;4970718;28;20540;-73
2023/07/01 11:36:37;;;;;;;0.67;0.40;;;19.70;1.00;;;;;;4979079;28;20818;-73
2023/07/01 11:39:08;;;;;;;0.60;0.20;;;19.60;1.00;;;;;;4973722;28;20963;-72
2023/07/01 11:41:37;;;;;;;0.80;0.43;;;19.60;1.00;;;;;;4982237;28;20445;-72
2023/07/01 11:44:08;;;;;;;4.23;1.20;;;19.30;1.00;;;;;;4989102;28;20445;-72
2023/07/01 11:46:37;;;;;;;0.70;0.40;;;19.40;8.10;;;;;;4977509;28;20463;-72
2023/07/01 11:49:18;;;;;;;0.90;0.50;;;19.30;6.30;;;;;;4973801;28;20477;-73
2023/07/01 11:51:48;;;;;;;0.70;0.30;;;19.30;12.50;;;;;;4981984;28;20841;-73
2023/07/01 11:54:17;;;;;;;1.10;0.30;;;19.30;12.80;;;;;;4992722;28;20534;-72
2023/07/01 11:56:46;;;;;;;8.17;3.07;;;19.30;12.40;;;;;;4982968;28;20472;-73
2023/07/01 11:59:29;;;;;;;2.30;2.10;;;19.30;16.40;;;;;;4974104;28;20505;-72
2023/07/01 12:01:57;;;;;;;1.77;0.60;;;19.30;17.90;;;;;;4973768;28;20449;-73
2023/07/01 12:04:26;;;;;;;1.00;0.30;;;19.40;19.80;;;;;;4975021;28;20976;-72
2023/07/01 12:07:07;;;;;;;0.93;0.83;;;19.40;16.50;;;;;;4992137;28;20483;-73
2023/07/01 12:09:36;;;;;;;0.73;0.30;;;19.50;18.00;;;;;;4978855;28;20484;-72
2023/07/01 12:12:04;;;;;;;1.47;1.17;;;19.50;17.10;;;;;;4986407;28;20444;-73
2023/07/01 12:14:32;;;;;;;2.73;1.40;;;19.50;13.90;;;;;;4978083;28;20480;-72
2023/07/01 12:17:02;;;;;;;0.60;0.20;;;19.50;15.10;;;;;;4989869;28;20491;-73
2023/07/01 12:19:31;;;;;;;0.80;0.60;;;19.60;10.30;;;;;;4982550;28;20902;-73
2023/07/01 12:22:00;;;;;;;0.80;0.40;;;19.80;9.70;;;;;;4987627;28;20874;-72
2023/07/01 12:24:31;;;;;;;1.00;0.53;;;19.70;8.30;;;;;;4992878;28;20519;-71
2023/07/01 12:27:00;;;;;;;0.60;0.10;;;19.70;9.10;;;;;;4983870;28;21066;-72
2023/07/01 12:29:28;;;;;;;0.60;0.20;;;19.80;8.20;;;;;;4975939;28;20477;-72
2023/07/01 12:31:57;;;;;;;1.10;0.47;;;19.90;6.60;;;;;;4976175;28;20544;-73
2023/07/01 12:34:26;;;;;;;1.37;0.83;;;20.00;4.60;;;;;;4984111;28;20457;-72
2023/07/01 12:36:54;;;;;;;1.17;0.70;;;20.00;2.50;;;;;;4992007;28;20544;-73
2023/07/01 12:39:23;;;;;;;0.80;0.40;;;19.90;3.20;;;;;;4976156;28;20529;-73
2023/07/01 12:41:53;;;;;;;1.57;0.50;;;;;;;;;;4982703;28;20500;-73
2023/07/01 12:44:21;;;;;;;3.23;1.57;;;20.00;1.00;;;;;;4994850;28;20542;-72
2023/07/01 12:46:49;;;;;;;1.17;0.90;;;20.00;1.00;;;;;;4995120;28;20493;-72
2023/07/01 12:49:17;;;;;;;0.60;0.20;;;20.10;1.00;;;;;;4976237;28;20936;-73
2023/07/01 12:51:46;;;;;;;1.07;0.63;;;20.10;1.00;;;;;;4984164;28;20457;-72
2023/07/01 12:54:14;;;;;;;1.07;0.63;;;20.20;1.00;;;;;;4994536;28;20668;-72
2023/07/01 12:56:46;;;;;;;1.17;0.60;;;20.20;1.00;;;;;;4995152;28;20475;-73
2023/07/01 12:59:16;;;;;;;0.80;0.30;;;20.30;1.00;;;;;;4975822;28;20511;-72
2023/07/01 13:01:45;;;;;;;0.70;0.30;;;20.40;1.00;;;;;;4976084;28;20449;-71
2023/07/01 13:04:16;;;;;;;0.60;0.10;;;20.40;1.00;;;;;;4975644;28;20516;-72
2023/07/01 13:06:45;;;;;;;0.60;0.20;;;20.50;1.00;;;;;;4979730;28;20939;-73
2023/07/01 13:09:14;;;;;;;0.60;0.20;;;20.50;1.00;;;;;;4978099;28;20490;-73
2023/07/01 13:11:41;;;;;;;1.40;0.40;;;20.50;1.00;;;;;;4989609;28;20479;-73
2023/07/01 13:14:11;;;;;;;0.87;0.30;;;20.40;1.00;;;;;;4985186;28;20446;-72
2023/07/01 13:16:42;;;;;;;1.10;0.60;;;20.50;1.00;;;;;;4973952;28;20483;-72
2023/07/01 13:19:12;;;;;;;8.10;6.37;;;19.10;1.00;;;;;;4975738;28;20980;-73
2023/07/01 13:21:41;;;;;;;0.60;0.17;;;20.60;1.00;;;;;;4975554;28;20449;-72
2023/07/01 13:24:12;;;;;;;2.10;0.87;;;20.60;1.00;;;;;;4975218;28;20516;-72
2023/07/01 13:26:41;;;;;;;0.60;0.20;;;20.60;1.00;;;;;;4975126;28;20919;-72
2023/07/01 13:29:12;;;;;;;1.00;0.63;;;20.50;1.00;;;;;;4975286;28;20457;-72
2023/07/01 13:31:42;;;;;;;1.07;0.40;;;20.40;1.00;;;;;;4982768;28;20483;-72
2023/07/01 13:34:10;;;;;;;1.13;0.50;;;20.30;1.00;;;;;;4955889;29;20498;-71
2023/07/01 13:36:42;;;;;;;0.87;0.40;;;20.30;1.00;;;;;;4964780;28;20516;-72
2023/07/01 13:39:13;;;;;;;1.87;0.77;;;20.20;1.00;;;;;;4975385;28;20507;-73
2023/07/01 13:41:41;;;;;;;3.20;0.93;;;;;;;;;;4974669;28;20995;-73
2023/07/01 13:44:19;;;;;;;0.70;0.30;;;20.30;2.60;;;;;;4974557;28;20445;-72
2023/07/01 13:46:50;;;;;;;0.70;0.20;;;20.30;2.50;;;;;;4973611;28;20487;-72
2023/07/01 13:49:22;;;;;;;1.53;1.00;;;20.30;11.10;;;;;;4973402;28;20453;-72
2023/07/01 13:51:50;;;;;;;0.70;0.40;;;20.40;4.00;;;;;;4974042;28;20482;-72
2023/07/01 13:54:21;;;;;;;0.90;0.57;;;20.50;1.00;;;;;;4973670;28;20449;-73
2023/07/01 13:56:49;;;;;;;8.13;0.40;;;20.60;1.00;;;;;;4973963;28;20505;-73
2023/07/01 13:59:18;;;;;;;0.80;0.73;;;20.60;1.00;;;;;;4973988;28;20536;-72
2023/07/01 14:01:57;;;;;;;0.60;0.10;;;20.70;1.00;;;;;;4981746;28;20979;-73
2023/07/01 14:04:26;;;;;;;0.60;0.20;;;20.80;1.00;;;;;;4987767;28;20468;-73
2023/07/01 14:06:54;;;;;;;0.60;0.10;;;20.90;1.00;;;;;;4982502;28;20529;-72
2023/07/01 14:09:24;;;;;;;0.60;0.20;;;20.90;1.00;;;;;;4973865;28;20476;-72
2023/07/01 14:11:52;;;;;;;0.60;0.10;;;21.00;1.00;;;;;;4988899;28;21000;-72
2023/07/01 14:14:20;;;;;;;8.33;0.70;;;21.00;1.00;;;;;;4981406;28;20892;-72
2023/07/01 14:16:51;;;;;;;2.00;1.03;;;21.00;1.00;;;;;;4973589;28;20474;-72
2023/07/01 14:19:19;;;;;;;0.60;0.20;;;20.90;1.00;;;;;;4973658;28;20497;-72
2023/07/01 14:21:48;;;;;;;2.20;1.40;;;;;;;;;;4973391;28;20442;-72
2023/07/01 14:24:23;;;;;;;2.83;1.03;;;20.90;1.00;;;;;;4972891;28;20462;-72
2023/07/01 14:26:52;;;;;;;0.67;0.23;;;20.80;1.00;;;;;;4973819;28;20464;-73
2023/07/01 14:29:20;;;;;;;0.70;0.20;;;20.70;1.00;;;;;;4973556;28;20541;-72
2023/07/01 14:31:51;;;;;;;5.97;4.77;;;20.70;1.00;;;;;;4976468;28;20841;-71
2023/07/01 14:34:22;;;;;;;1.77;0.53;;;20.60;2.10;;;;;;4976573;28;20467;-73
2023/07/01 14:36:54;;;;;;;0.70;0.30;;;20.50;3.20;;;;;;4973575;28;20557;-72
2023/07/01 14:39:38;;;;;;;0.60;0.20;;;20.60;4.50;;;;;;4973702;28;20438;-71
2023/07/01 14:42:08;;;;;;;1.03;0.40;;;20.50;5.00;;;;;;4973716;28;20456;-71
2023/07/01 14:44:36;;;;;;;0.77;0.40;;;20.60;7.90;;;;;;4973204;28;20545;-72
2023/07/01 14:47:05;;;;;;;1.63;0.47;;;20.60;7.20;;;;;;4973086;28;20557;-72
2023/07/01 14:49:35;;;;;;;1.00;0.43;;;20.70;5.40;;;;;;4972469;28;20450;-72
2023/07/01 14:52:04;;;;;;;0.60;0.10;;;20.70;5.00;;;;;;4973348;28;20485;-72
2023/07/01 14:54:32;;;;;;;0.60;0.10;;;20.70;5.20;;;;;;4972906;28;20532;-73
2023/07/01 14:57:00;;;;;;;0.60;0.10;;;20.80;4.30;;;;;;4973387;28;20565;-72
2023/07/01 14:59:28;;;;;;;0.60;0.30;;;20.80;3.60;;;;;;4973141;28;20452;-72
2023/07/01 15:01:58;;;;;;;0.60;0.20;;;20.80;4.10;;;;;;4973227;28;20442;-72
2023/07/01 15:04:27;;;;;;;0.70;0.30;;;20.80;4.30;;;;;;4972896;28;20462;-73
2023/07/01 15:06:56;;;;;;;0.70;0.23;;;20.70;4.90;;;;;;4972912;28;20569;-72
2023/07/01 15:09:24;;;;;;;0.60;0.10;;;20.80;3.40;;;;;;4973156;28;20839;-72
2023/07/01 15:11:51;;;;;;;1.13;0.80;;;20.60;7.50;;;;;;4988955;28;20483;-72
2023/07/01 15:14:19;;;;;;;0.60;0.20;;;18.30;6.70;;;;;;4992465;28;21014;-74
2023/07/01 15:16:47;;;;;;;0.70;0.30;;;20.40;10.40;;;;;;4984039;28;20533;-73
2023/07/01 15:19:15;;;;;;;0.60;0.20;;;20.40;11.70;;;;;;4973569;28;21114;-72
2023/07/01 15:21:44;;;;;;;0.70;0.30;;;20.30;14.80;;;;;;4973456;28;20445;-72
2023/07/01 15:24:12;;;;;;;0.70;0.33;;;20.30;16.90;;;;;;4973729;28;20453;-73
2023/07/01 15:26:40;;;;;;;0.90;0.63;;;20.30;20.00;;;;;;4975230;28;20493;-72
2023/07/01 15:29:08;;;;;;;0.70;0.20;;;20.30;22.00;;;;;;4975197;28;20476;-73
2023/07/01 15:31:36;;;;;;;0.60;0.20;;;20.40;24.90;;;;;;4974706;28;21074;-72
2023/07/01 15:34:04;;;;;;;0.60;0.20;;;20.40;32.50;;;;;;4973751;28;20438;-72
2023/07/01 15:36:31;;;;;;;0.60;0.30;;;20.40;37.40;;;;;;4975074;28;20472;-72
2023/07/01 15:39:01;;;;;;;0.70;0.30;;;20.30;40.40;;;;;;4973174;28;20458;-73
2023/07/01 15:41:28;;;;;;;0.80;0.27;;;20.30;47.80;;;;;;4976662;28;20541;-73
2023/07/01 15:44:14;;;;;;;0.93;0.63;;;20.30;49.70;;;;;;4976473;28;20453;-72
2023/07/01 15:46:42;;;;;;;0.60;0.20;;;20.20;55.00;;;;;;4976529;28;20918;-73
2023/07/01 15:49:10;;;;;;;0.93;0.57;;;20.30;58.30;;;;;;4976666;28;20452;-73
2023/07/01 15:51:38;;;;;;;0.80;0.50;;;20.30;61.90;;;;;;4976390;28;20577;-74
2023/07/01 15:54:10;;;;;;;0.70;0.30;;;20.20;65.80;;;;;;4976729;28;20460;-73
2023/07/01 15:56:38;;;;;;;0.60;0.13;;;20.40;65.10;;;;;;4975911;28;20469;-73
2023/07/01 15:59:06;;;;;;;1.60;1.20;;;20.30;65.50;;;;;;4976515;28;20450;-73
2023/07/01 16:01:34;;;;;;;1.07;0.40;;;20.20;79.10;;;;;;4976531;28;20481;-74
2023/07/01 16:04:04;;;;;;;0.70;0.47;;;20.10;94.50;;;;;;4976845;28;20450;-74
2023/07/01 16:06:32;;;;;;;0.60;0.10;;;20.10;99.90;;;;;;4976499;28;20477;-73
2023/07/01 16:09:00;;;;;;;1.27;0.50;;;20.10;99.90;;;;;;4976973;28;20451;-72
2023/07/01 16:11:33;;;;;;;0.80;0.40;;;19.90;99.90;;;;;;4988685;28;20836;-71
2023/07/01 16:14:01;;;;;;;0.70;0.40;;;20.00;99.90;;;;;;4995633;28;21011;-73
2023/07/01 16:16:31;;;;;;;6.47;1.60;;;20.00;99.90;;;;;;4991418;23;20460;-74
2023/07/01 16:19:15;;;;;;;1.43;0.50;;;20.00;99.90;;;;;;4977542;28;20438;-73
2023/07/01 16:21:43;;;;;;;1.13;0.53;;;19.90;99.90;;;;;;4975861;28;20451;-73
2023/07/01 16:24:48;;;;;;;0.60;0.10;;;19.90;99.90;;;;;;4976773;28;20758;-73
2023/07/01 16:27:18;;;;;;;0.60;0.37;;;20.00;99.90;;;;;;4987933;28;20479;-74
2023/07/01 16:29:46;;;;;;;1.20;0.87;;;20.10;99.90;;;;;;4980393;28;20444;-75
2023/07/01 16:32:20;;;;;;;0.83;0.50;;;20.30;99.90;;;;;;4996587;28;20524;-74
2023/07/01 16:34:49;;;;;;;0.73;0.73;;;20.20;99.90;;;;;;4984787;28;21012;-73
2023/07/01 16:37:17;;;;;;;0.60;0.20;;;20.20;99.90;;;;;;4998272;28;20481;-74
2023/07/01 16:39:51;;;;;;;0.60;0.10;;;20.20;99.90;;;;;;4991073;28;20466;-73
2023/07/01 16:42:21;;;;;;;0.60;0.20;;;20.30;99.90;;;;;;4993944;28;20472;-74
2023/07/01 16:44:52;;;;;;;0.67;0.30;;;20.30;99.90;;;;;;4995562;28;20452;-74
2023/07/01 16:47:22;;;;;;;1.03;0.57;;;20.30;99.90;;;;;;4994773;28;20473;-74
2023/07/01 16:49:51;;;;;;;1.03;0.70;;;20.30;99.90;;;;;;4993914;28;20447;-75
2023/07/01 16:52:25;;;;;;;0.60;0.17;;;20.30;99.90;;;;;;4979865;28;20492;-75
2023/07/01 16:54:53;;;;;;;0.60;0.20;;;20.40;99.90;;;;;;5001232;28;20492;-74
2023/07/01 16:57:23;;;;;;;0.67;0.20;;;20.40;99.90;;;;;;5003779;28;20480;-75
2023/07/01 16:59:51;;;;;;;0.60;0.20;;;20.30;99.90;;;;;;5001517;28;20970;-75
2023/07/01 17:02:59;;;;;;;0.60;0.10;;;20.30;99.90;;;;;;5002848;28;20513;-75
2023/07/01 17:05:27;;;;;;;0.60;0.20;;;20.50;99.90;;;;;;4983746;28;20551;-75
2023/07/01 17:07:57;;;;;;;0.70;0.60;;;20.50;99.90;;;;;;4978137;28;20473;-73
2023/07/01 17:10:37;;;;;;;0.60;0.20;;;20.40;99.90;;;;;;4980239;28;20449;-75
2023/07/01 17:13:18;;;;;;;2.73;2.50;;;20.40;99.90;;;;;;4994674;28;20936;-75
2023/07/01 17:15:51;;;;;;;0.60;0.10;;;20.50;99.90;;;;;;4995826;28;20430;-75
2023/07/01 17:18:20;;;;;;;0.60;0.20;;;20.50;99.90;;;;;;4989392;28;20478;-75